KPXE Airport (Perry-Houston County) Information

FAA: PXE - ICAO: KPXE

KPXE Airport Location

State Georgia
County Houston
City Perry
KPXE Airport is 4 miles northwest of Perry, GA.
Latitude 32-30-38.1000N
Longitude 083-46-02.4000W
Elevation 418ft

KPXE Airport METARs

METAR KPXE 262255Z AUTO 31006KT 10SM CLR 11/M07 A3008 RMK AO2 T01111066
Altimeter 30.08"
Temperature 11.1°C (52.0°F)
Wind 310° at 6KT
Clouds Skies are clear.
Visibility 10.0mi
Time observed: 2021-11-26T22:55:00Z

KPXE Airport Details

Status Operational
Activation May 1947
Ownership Public
Usage Public
Chart ATLANTA
ATC on-site No
Beacon schedule sunset-sunrise
Beacon color clear green

KPXE Airport Contacts

Owner PERRY-HOUSTON CO ARPT AUTH
Owner address 200 MYRTLE FIELD ROAD, PERRY, GA 31069
Owner phone 478-988-3699
Manager JOSEPH D. POOLE & ROBERT E. POOLE
Manager address 3151 LAVENTURE DRIVE, ATLANTA, GA 30341
Manager phone 770-457-7340

KPXE Airport (Perry-Houston County) Radio Frequencies

KPXE (Airport) Radio Frequencies

UNICOM 122.725
Common traffic advisory frequency (CTAF) 122.725